Time;durP1;ratioP1;P1;durP2;ratioP2;P2;SDS_P1;SDS_P2;PMS_P1;PMS_P2;Temp;Humidity;BMP_temperature;BMP_pressure;BME280_temperature;BME280_humidity;BME280_pressure;Samples;Min_cycle;Max_cycle;Signal;HPM_P1;HPM_P2
2023/04/30 00:02:02;;;;;;;7.97;3.20;;;;;;;-143.99;100.00;64180.81;6078728;29;20233;-74
2023/04/30 00:05:23;;;;;;;1.73;1.50;;;;;;;-143.99;100.00;64180.81;6069790;29;20623;-74
2023/04/30 00:08:44;;;;;;;6.67;2.80;;;;;;;-143.99;100.00;64180.81;6065609;29;21291;-74
2023/04/30 00:12:05;;;;;;;5.37;2.57;;;;;;;-143.99;100.00;64180.81;6079480;29;20237;-75
2023/04/30 00:15:27;;;;;;;6.03;2.63;;;;;;;-143.99;100.00;64180.81;6073968;29;20240;-76
2023/04/30 00:18:49;;;;;;;3.83;2.60;;;;;;;-143.99;100.00;64180.81;6067463;29;20324;-74
2023/04/30 00:22:12;;;;;;;4.50;4.07;;;;;;;-143.99;100.00;64180.81;6075444;29;20232;-74
2023/04/30 00:25:33;;;;;;;5.97;2.50;;;;;;;-143.99;100.00;64180.81;6072636;29;20244;-75
2023/04/30 00:28:57;;;;;;;3.60;2.20;;;;;;;-143.99;100.00;64180.81;6077685;29;20244;-76
2023/04/30 00:32:19;;;;;;;3.23;2.87;;;;;;;-143.99;100.00;64180.81;6073264;29;20252;-74
2023/04/30 00:35:41;;;;;;;2.67;2.23;;;;;;;-143.99;100.00;64180.81;6072619;29;20228;-74
2023/04/30 00:39:02;;;;;;;2.97;1.90;;;;;;;-143.99;100.00;64180.81;6067466;29;20232;-74
2023/04/30 00:42:23;;;;;;;2.23;2.00;;;;;;;-143.99;100.00;64180.81;6074170;29;20244;-74
2023/04/30 00:45:44;;;;;;;2.87;2.30;;;;;;;-143.99;100.00;64180.81;6072989;29;20360;-75
2023/04/30 00:49:09;;;;;;;6.90;2.90;;;;;;;-143.99;100.00;64180.81;6073389;28;20228;-74
2023/04/30 00:52:30;;;;;;;10.43;3.17;;;;;;;-143.99;100.00;64180.81;6069589;29;20241;-74
2023/04/30 00:55:51;;;;;;;2.70;1.87;;;;;;;-143.99;100.00;64180.81;6071945;29;20347;-74
2023/04/30 00:59:13;;;;;;;4.00;2.30;;;;;;;-143.99;100.00;64180.81;6073779;29;20508;-74
2023/04/30 01:02:34;;;;;;;4.00;2.03;;;;;;;-143.99;100.00;64180.81;6080218;29;20490;-74
2023/04/30 01:05:56;;;;;;;4.60;3.33;;;;;;;-143.99;100.00;64180.81;6076520;28;20233;-74
2023/04/30 01:09:17;;;;;;;3.43;3.13;;;;;;;-143.99;100.00;64180.81;6082304;29;20611;-74
2023/04/30 01:12:46;;;;;;;5.00;2.80;;;;;;;-143.99;100.00;64180.81;6082572;29;20229;-74
2023/04/30 01:16:13;;;;;;;9.07;3.37;;;;;;;-143.99;100.00;64180.81;6081877;29;20236;-75
2023/04/30 01:19:40;;;;;;;4.97;2.57;;;;;;;-143.99;100.00;64180.81;6089265;29;20232;-74
2023/04/30 01:23:14;;;;;;;5.00;2.80;;;;;;;-143.99;100.00;64180.81;6071500;29;20232;-74
2023/04/30 01:26:59;;;;;;;4.90;2.70;;;;;;;-143.99;100.00;64180.81;6063076;29;20228;-74
2023/04/30 01:30:24;;;;;;;5.10;1.70;;;;;;;-143.99;100.00;64180.81;6084195;29;20634;-74
2023/04/30 01:33:45;;;;;;;3.33;2.20;;;;;;;-143.99;100.00;64180.81;6070887;29;20225;-74
2023/04/30 01:37:16;;;;;;;3.60;2.07;;;;;;;-143.99;100.00;64180.81;6086812;29;20302;-74
2023/04/30 01:40:44;;;;;;;4.00;2.27;;;;;;;-143.99;100.00;64180.81;6079906;29;20236;-74
2023/04/30 01:44:17;;;;;;;4.60;3.53;;;;;;;-143.99;100.00;64180.81;6070422;29;20220;-76
2023/04/30 01:47:48;;;;;;;4.03;3.47;;;;;;;-143.99;100.00;64180.81;6086413;29;20623;-74
2023/04/30 01:51:19;;;;;;;2.93;2.63;;;;;;;-143.99;100.00;64180.81;6062736;29;20232;-74
2023/04/30 01:54:46;;;;;;;2.90;2.00;;;;;;;-143.99;100.00;64180.81;6072002;29;20240;-74
2023/04/30 01:58:11;;;;;;;4.87;2.70;;;;;;;-143.99;100.00;64180.81;6082178;29;20438;-75
2023/04/30 02:01:33;;;;;;;4.63;2.20;;;;;;;-143.99;100.00;64180.81;6069971;29;20249;-75
2023/04/30 02:04:55;;;;;;;4.97;1.83;;;;;;;-143.99;100.00;64180.81;6074413;29;20282;-74
2023/04/30 02:08:15;;;;;;;3.73;2.23;;;;;;;-143.99;100.00;64180.81;6067043;29;20317;-73
2023/04/30 02:11:36;;;;;;;5.33;2.03;;;;;;;-143.99;100.00;64180.81;6074661;29;20232;-74
2023/04/30 02:14:57;;;;;;;2.20;1.57;;;;;;;-143.99;100.00;64180.81;6080469;29;20239;-73
2023/04/30 02:18:18;;;;;;;3.90;2.57;;;;;;;-143.99;100.00;64180.81;6087633;29;20225;-74
2023/04/30 02:21:41;;;;;;;4.10;2.00;;;;;;;-143.99;100.00;64180.81;6089717;29;20243;-74
2023/04/30 02:25:02;;;;;;;3.17;2.57;;;;;;;-143.99;100.00;64180.81;6083647;29;20259;-74
2023/04/30 02:28:25;;;;;;;2.47;2.20;;;;;;;-143.99;100.00;64180.81;6095641;29;20237;-73
2023/04/30 02:31:45;;;;;;;3.03;1.83;;;;;;;-143.99;100.00;64180.81;6084570;29;20260;-73
2023/04/30 02:35:07;;;;;;;3.13;2.13;;;;;;;-143.99;100.00;64180.81;6069096;29;20248;-72
2023/04/30 02:38:29;;;;;;;4.37;2.17;;;;;;;-143.99;100.00;64180.81;6083175;29;20237;-73
2023/04/30 02:41:50;;;;;;;4.37;1.77;;;;;;;-143.99;100.00;64180.81;6079599;29;20539;-74
2023/04/30 02:45:12;;;;;;;2.30;1.93;;;;;;;-143.99;100.00;64180.81;6083300;29;20232;-75
2023/04/30 02:48:34;;;;;;;2.40;2.20;;;;;;;-143.99;100.00;64180.81;6092909;29;20240;-74
2023/04/30 02:51:55;;;;;;;3.93;2.90;;;;;;;-143.99;100.00;64180.81;6079835;29;20229;-74
2023/04/30 02:55:17;;;;;;;2.90;1.90;;;;;;;-143.99;100.00;64180.81;6080053;29;20233;-74
2023/04/30 02:58:45;;;;;;;3.33;2.40;;;;;;;-143.99;100.00;64180.81;6074545;29;20260;-73
2023/04/30 03:02:06;;;;;;;5.80;2.87;;;;;;;-143.99;100.00;64180.81;6083932;29;20323;-74
2023/04/30 03:05:28;;;;;;;9.20;3.57;;;;;;;-143.99;100.00;64180.81;6079679;29;20239;-74
2023/04/30 03:08:49;;;;;;;2.60;1.80;;;;;;;-143.99;100.00;64180.81;6072124;29;20241;-74
2023/04/30 03:12:11;;;;;;;2.70;1.87;;;;;;;-143.99;100.00;64180.81;6091438;29;20334;-75
2023/04/30 03:15:32;;;;;;;3.07;2.00;;;;;;;-143.99;100.00;64180.81;6074097;29;20670;-74
2023/04/30 03:18:53;;;;;;;4.80;2.30;;;;;;;-143.99;100.00;64180.81;6084196;29;20236;-74
2023/04/30 03:22:14;;;;;;;5.37;2.23;;;;;;;-143.99;100.00;64180.81;6063554;29;20538;-74
2023/04/30 03:25:35;;;;;;;4.87;1.97;;;;;;;-143.99;100.00;64180.81;6080052;29;20243;-73
2023/04/30 03:28:57;;;;;;;2.20;1.63;;;;;;;-143.99;100.00;64180.81;6066954;29;20252;-73
2023/04/30 03:32:18;;;;;;;5.67;2.27;;;;;;;-143.99;100.00;64180.81;6081091;29;20255;-74
2023/04/30 03:35:39;;;;;;;7.27;2.60;;;;;;;-143.99;100.00;64180.81;6077450;29;20236;-74
2023/04/30 03:39:00;;;;;;;4.30;2.30;;;;;;;-143.99;100.00;64180.81;6083922;29;20244;-75
2023/04/30 03:42:21;;;;;;;5.73;2.80;;;;;;;-143.99;100.00;64180.81;6075121;29;20282;-74
2023/04/30 03:45:43;;;;;;;4.20;1.90;;;;;;;-143.99;100.00;64180.81;6062675;29;20488;-74
2023/04/30 03:49:04;;;;;;;3.80;2.47;;;;;;;-143.99;100.00;64180.81;6069016;29;20241;-75
2023/04/30 03:52:26;;;;;;;5.47;2.43;;;;;;;-143.99;100.00;64180.81;6070687;29;20271;-75
2023/04/30 03:55:49;;;;;;;3.60;2.57;;;;;;;-143.99;100.00;64180.81;6066807;29;20320;-73
2023/04/30 03:59:10;;;;;;;5.10;2.77;;;;;;;-143.99;100.00;64180.81;6074746;29;20240;-74
2023/04/30 04:02:33;;;;;;;3.47;2.47;;;;;;;-143.99;100.00;64180.81;6087468;29;20277;-76
2023/04/30 04:05:54;;;;;;;11.27;3.70;;;;;;;-143.99;100.00;64180.81;6074827;29;20228;-75
2023/04/30 04:09:15;;;;;;;2.40;2.20;;;;;;;-143.99;100.00;64180.81;6074501;29;20607;-75
2023/04/30 04:12:38;;;;;;;5.97;2.27;;;;;;;-143.99;100.00;64180.81;6068309;29;20233;-75
2023/04/30 04:15:59;;;;;;;5.57;3.10;;;;;;;-143.99;100.00;64180.81;6060956;29;20305;-74
2023/04/30 04:19:22;;;;;;;4.47;2.27;;;;;;;-143.99;100.00;64180.81;6064157;29;20236;-74
2023/04/30 04:22:42;;;;;;;15.77;3.47;;;;;;;-143.99;100.00;64180.81;6065591;29;20957;-75
2023/04/30 04:26:05;;;;;;;3.53;1.73;;;;;;;-143.99;100.00;64180.81;6073826;29;20244;-75
2023/04/30 04:29:26;;;;;;;3.53;2.57;;;;;;;-143.99;100.00;64180.81;6061803;29;20228;-75
2023/04/30 04:32:49;;;;;;;2.60;2.10;;;;;;;-143.99;100.00;64180.81;6079959;29;20232;-75
2023/04/30 04:36:11;;;;;;;3.77;2.90;;;;;;;-143.99;100.00;64180.81;6066660;29;21297;-74
2023/04/30 04:39:32;;;;;;;5.47;2.77;;;;;;;-143.99;100.00;64180.81;6067622;29;20235;-74
2023/04/30 04:42:54;;;;;;;4.27;1.90;;;;;;;-143.99;100.00;64180.81;6059674;29;20232;-75
2023/04/30 04:46:16;;;;;;;2.00;1.90;;;;;;;-143.99;100.00;64180.81;6070417;28;20233;-74
2023/04/30 04:49:37;;;;;;;2.40;1.70;;;;;;;-143.99;100.00;64180.81;6075476;28;20303;-74
2023/04/30 04:52:59;;;;;;;3.50;1.83;;;;;;;-143.99;100.00;64180.81;6087913;29;20581;-76
2023/04/30 04:56:20;;;;;;;3.67;2.57;;;;;;;-143.99;100.00;64180.81;6078850;29;20233;-74
2023/04/30 04:59:41;;;;;;;6.83;3.40;;;;;;;-143.99;100.00;64180.81;6074833;29;20241;-74
2023/04/30 05:03:02;;;;;;;9.97;2.57;;;;;;;-143.99;100.00;64180.81;6076972;29;20248;-74
2023/04/30 05:06:23;;;;;;;1.87;1.70;;;;;;;-143.99;100.00;64180.81;6070684;29;20320;-75
2023/04/30 05:09:46;;;;;;;2.33;2.00;;;;;;;-143.99;100.00;64180.81;6095562;29;20399;-75
2023/04/30 05:13:07;;;;;;;2.90;2.10;;;;;;;-143.99;100.00;64180.81;6078641;29;20224;-75
2023/04/30 05:16:28;;;;;;;6.20;2.37;;;;;;;-143.99;100.00;64180.81;6080928;28;20669;-74
2023/04/30 05:19:49;;;;;;;2.87;2.40;;;;;;;-143.99;100.00;64180.81;6054567;29;20380;-74
2023/04/30 05:23:11;;;;;;;4.70;3.30;;;;;;;-143.99;100.00;64180.81;6071197;29;20248;-75
2023/04/30 05:26:33;;;;;;;3.70;3.40;;;;;;;-143.99;100.00;64180.81;6081126;28;20248;-75
2023/04/30 05:29:54;;;;;;;3.40;2.67;;;;;;;-143.99;100.00;64180.81;6066208;29;20248;-75
2023/04/30 05:33:15;;;;;;;2.77;2.03;;;;;;;-143.99;100.00;64180.81;6077652;29;20224;-74
2023/04/30 05:36:36;;;;;;;5.13;2.43;;;;;;;-143.99;100.00;64180.81;6072815;29;21432;-75
2023/04/30 05:40:00;;;;;;;3.50;3.20;;;;;;;-143.99;100.00;64180.81;6059828;29;20224;-74
2023/04/30 05:43:22;;;;;;;3.37;2.77;;;;;;;-143.99;100.00;64180.81;6083157;29;20244;-73
2023/04/30 05:46:43;;;;;;;3.73;2.13;;;;;;;-143.99;100.00;64180.81;6075192;29;20237;-75
2023/04/30 05:50:05;;;;;;;3.77;2.73;;;;;;;-143.99;100.00;64180.81;6068354;29;20627;-74
2023/04/30 05:53:26;;;;;;;3.83;2.97;;;;;;;-143.99;100.00;64180.81;6068081;29;20229;-75
2023/04/30 05:56:47;;;;;;;6.17;2.57;;;;;;;-143.99;100.00;64180.81;6077341;29;20766;-76
2023/04/30 06:00:11;;;;;;;2.17;1.90;;;;;;;-143.99;100.00;64180.81;6065234;29;20240;-73
2023/04/30 06:03:34;;;;;;;3.53;1.83;;;;;;;-143.99;100.00;64180.81;6078868;29;20230;-74
2023/04/30 06:06:55;;;;;;;3.97;2.23;;;;;;;-143.99;100.00;64180.81;6075660;29;20233;-75
2023/04/30 06:10:17;;;;;;;3.87;2.00;;;;;;;-143.99;100.00;64180.81;6064098;29;20244;-75
2023/04/30 06:13:38;;;;;;;3.03;1.30;;;;;;;-143.99;100.00;64180.81;6075630;29;20248;-75
2023/04/30 06:17:00;;;;;;;2.43;2.23;;;;;;;-143.99;100.00;64180.81;6083363;29;20432;-74
2023/04/30 06:20:21;;;;;;;6.30;2.10;;;;;;;-143.99;100.00;64180.81;6070163;29;20237;-75
2023/04/30 06:23:44;;;;;;;1.90;1.80;;;;;;;-143.99;100.00;64180.81;6068687;29;20682;-75
2023/04/30 06:27:05;;;;;;;4.47;2.30;;;;;;;-143.99;100.00;64180.81;6087746;29;20241;-75
2023/04/30 06:30:26;;;;;;;6.20;2.03;;;;;;;-143.99;100.00;64180.81;6054297;29;20282;-75
2023/04/30 06:33:49;;;;;;;4.50;1.70;;;;;;;-143.99;100.00;64180.81;6067286;29;20236;-75
2023/04/30 06:37:10;;;;;;;8.17;2.83;;;;;;;-143.99;100.00;64180.81;6083567;29;20241;-75
2023/04/30 06:40:31;;;;;;;5.77;2.20;;;;;;;-143.99;100.00;64180.81;6077614;29;20232;-75
2023/04/30 06:43:52;;;;;;;5.13;3.57;;;;;;;-143.99;100.00;64180.81;6065035;29;20236;-75
2023/04/30 06:47:14;;;;;;;1.97;1.67;;;;;;;-143.99;100.00;64180.81;6077279;29;20256;-74
2023/04/30 06:50:43;;;;;;;3.13;1.83;;;;;;;-143.99;100.00;64180.81;6069204;29;20241;-74
2023/04/30 06:54:05;;;;;;;1.80;1.50;;;;;;;-143.99;100.00;64180.81;6069900;29;20248;-74
2023/04/30 06:57:28;;;;;;;2.67;1.70;;;;;;;-143.99;100.00;64180.81;6079334;29;20224;-76
2023/04/30 07:00:49;;;;;;;2.57;1.93;;;;;;;-143.99;100.00;64180.81;6072612;29;20229;-75
2023/04/30 07:04:10;;;;;;;1.47;1.20;;;;;;;-143.99;100.00;64180.81;6079430;29;20231;-75
2023/04/30 07:07:32;;;;;;;2.33;1.90;;;;;;;-143.99;100.00;64180.81;6086588;29;20549;-74
2023/04/30 07:10:53;;;;;;;1.93;1.43;;;;;;;-143.99;100.00;64180.81;6084027;28;20227;-75
2023/04/30 07:14:14;;;;;;;4.57;2.77;;;;;;;-143.99;100.00;64180.81;6064165;29;20236;-75
2023/04/30 07:17:35;;;;;;;2.40;1.90;;;;;;;-143.99;100.00;64180.81;6091580;29;20236;-74
2023/04/30 07:20:56;;;;;;;3.50;1.60;;;;;;;-143.99;100.00;64180.81;6083362;29;20524;-74
2023/04/30 07:24:18;;;;;;;4.33;2.00;;;;;;;-143.99;100.00;64180.81;6066526;28;20247;-75
2023/04/30 07:27:39;;;;;;;4.40;1.93;;;;;;;-143.99;100.00;64180.81;6086488;29;20249;-75
2023/04/30 07:31:02;;;;;;;3.50;2.97;;;;;;;-143.99;100.00;64180.81;6070763;29;21648;-75
2023/04/30 07:34:23;;;;;;;3.10;2.40;;;;;;;-143.99;100.00;64180.81;6068654;29;20228;-75
2023/04/30 07:37:44;;;;;;;2.00;1.73;;;;;;;-143.99;100.00;64180.81;6080035;29;20240;-75
2023/04/30 07:41:08;;;;;;;4.60;2.10;;;;;;;-143.99;100.00;64180.81;6067328;29;20244;-77
2023/04/30 07:44:32;;;;;;;7.30;3.63;;;;;;;-143.99;100.00;64180.81;6069674;29;20255;-75
2023/04/30 07:47:52;;;;;;;3.23;2.57;;;;;;;-143.99;100.00;64180.81;6074352;29;20630;-75
2023/04/30 07:51:13;;;;;;;1.93;1.70;;;;;;;-143.99;100.00;64180.81;6072411;29;21666;-76
2023/04/30 07:54:36;;;;;;;2.87;1.97;;;;;;;-143.99;100.00;64180.81;6065761;29;20255;-76
2023/04/30 07:57:58;;;;;;;3.57;2.10;;;;;;;-143.99;100.00;64180.81;6072894;29;20257;-75
2023/04/30 08:01:19;;;;;;;3.03;2.30;;;;;;;-143.99;100.00;64180.81;6082989;29;20232;-74
2023/04/30 08:04:40;;;;;;;5.93;3.37;;;;;;;-143.99;100.00;64180.81;6060515;29;20236;-74
2023/04/30 08:08:01;;;;;;;5.80;2.40;;;;;;;-143.99;100.00;64180.81;6074598;29;20320;-72
2023/04/30 08:11:22;;;;;;;3.93;2.43;;;;;;;-143.99;100.00;64180.81;6089021;29;20532;-71
2023/04/30 08:14:47;;;;;;;2.77;1.87;;;;;;;-143.99;100.00;64180.81;6077292;29;20328;-74
2023/04/30 08:18:09;;;;;;;2.57;1.60;;;;;;;-143.99;100.00;64180.81;6071566;29;20236;-74
2023/04/30 08:21:30;;;;;;;2.37;1.73;;;;;;;-143.99;100.00;64180.81;6076349;29;20237;-74
2023/04/30 08:24:51;;;;;;;6.63;1.67;;;;;;;-143.99;100.00;64180.81;6071754;28;20515;-74
2023/04/30 08:28:12;;;;;;;1.40;1.23;;;;;;;-143.99;100.00;64180.81;6080173;29;22247;-73
2023/04/30 08:31:34;;;;;;;2.20;2.00;;;;;;;-143.99;100.00;64180.81;6069627;29;20228;-74
2023/04/30 08:34:55;;;;;;;4.60;1.83;;;;;;;-143.99;100.00;64180.81;6079770;29;20236;-75
2023/04/30 08:38:17;;;;;;;5.27;2.17;;;;;;;-143.99;100.00;64180.81;6078742;29;20236;-74
2023/04/30 08:41:39;;;;;;;1.80;1.40;;;;;;;-143.99;100.00;64180.81;6070244;29;20240;-74
2023/04/30 08:45:01;;;;;;;2.17;1.90;;;;;;;-143.99;100.00;64180.81;6076442;29;20240;-74
2023/04/30 08:48:25;;;;;;;2.07;1.60;;;;;;;-143.99;100.00;64180.81;6081687;29;20583;-74
2023/04/30 08:51:48;;;;;;;4.27;2.00;;;;;;;-143.99;100.00;64180.81;6077846;29;20237;-74
2023/04/30 08:55:10;;;;;;;1.70;1.60;;;;;;;-143.99;100.00;64180.81;6072881;29;20634;-75
2023/04/30 08:58:31;;;;;;;2.00;1.60;;;;;;;-143.99;100.00;64180.81;6073322;29;20240;-75
2023/04/30 09:01:51;;;;;;;1.87;1.50;;;;;;;-143.99;100.00;64180.81;6077942;29;20619;-75
2023/04/30 09:05:15;;;;;;;3.67;1.63;;;;;;;-143.99;100.00;64180.81;6073861;29;20241;-74
2023/04/30 09:08:43;;;;;;;4.13;1.40;;;;;;;-143.99;100.00;64180.81;6080268;29;20241;-74
2023/04/30 09:12:13;;;;;;;5.90;1.90;;;;;;;-143.99;100.00;64180.81;6077812;29;20229;-74
2023/04/30 09:15:35;;;;;;;1.90;1.53;;;;;;;-143.99;100.00;64180.81;6078225;29;20290;-75
2023/04/30 09:18:56;;;;;;;1.60;1.50;;;;;;;-143.99;100.00;64180.81;6064462;29;20254;-74
2023/04/30 09:22:23;;;;;;;2.63;1.33;;;;;;;-143.99;100.00;64180.81;6082306;29;20252;-76
2023/04/30 09:25:43;;;;;;;3.60;2.53;;;;;;;-143.99;100.00;64180.81;6080888;29;20244;-75
2023/04/30 09:29:07;;;;;;;2.07;1.73;;;;;;;-143.99;100.00;64180.81;6064446;29;20241;-74
2023/04/30 09:32:28;;;;;;;2.40;2.20;;;;;;;-143.99;100.00;64180.81;6075652;29;20834;-74
2023/04/30 09:35:48;;;;;;;3.57;2.33;;;;;;;-143.99;100.00;64180.81;6065286;29;20236;-76
2023/04/30 09:39:12;;;;;;;2.87;1.63;;;;;;;-143.99;100.00;64180.81;6072402;29;20240;-75
2023/04/30 09:42:33;;;;;;;4.93;1.87;;;;;;;-143.99;100.00;64180.81;6076420;29;20336;-75
2023/04/30 09:45:54;;;;;;;4.90;2.33;;;;;;;-143.99;100.00;64180.81;6074656;29;20229;-76
2023/04/30 09:49:19;;;;;;;7.60;4.73;;;;;;;-143.99;100.00;64180.81;6076555;29;20244;-75
2023/04/30 09:52:40;;;;;;;2.60;2.07;;;;;;;-143.99;100.00;64180.81;6078494;29;20232;-76
2023/04/30 09:56:08;;;;;;;4.17;1.70;;;;;;;-143.99;100.00;64180.81;6079280;29;20249;-76
2023/04/30 09:59:34;;;;;;;3.33;2.27;;;;;;;-143.99;100.00;64180.81;6060289;28;20295;-74
2023/04/30 10:02:55;;;;;;;3.67;1.93;;;;;;;-143.99;100.00;64180.81;6066931;29;20275;-74
2023/04/30 10:06:17;;;;;;;5.50;1.50;;;;;;;-143.99;100.00;64180.81;6084831;29;20245;-74
2023/04/30 10:09:48;;;;;;;3.37;1.57;;;;;;;-143.99;100.00;64180.81;6070971;29;20225;-74
2023/04/30 10:13:19;;;;;;;3.33;1.73;;;;;;;-143.99;100.00;64180.81;6080380;29;20237;-74
2023/04/30 10:16:47;;;;;;;2.73;2.13;;;;;;;-143.99;100.00;64180.81;6074379;29;20229;-74
2023/04/30 10:20:12;;;;;;;4.00;1.67;;;;;;;-143.99;100.00;64180.81;6067406;29;20237;-77
2023/04/30 10:23:33;;;;;;;3.00;1.67;;;;;;;-143.99;100.00;64180.81;6079718;29;20401;-77
2023/04/30 10:26:56;;;;;;;2.63;1.80;;;;;;;-143.99;100.00;64180.81;6078629;29;20236;-75
2023/04/30 10:30:18;;;;;;;2.17;1.97;;;;;;;-143.99;100.00;64180.81;6085560;29;20326;-77
2023/04/30 10:33:48;;;;;;;1.30;1.20;;;;;;;-143.99;100.00;64180.81;6068848;29;20241;-76
2023/04/30 10:37:21;;;;;;;3.03;1.33;;;;;;;-143.99;100.00;64180.81;6087237;29;20423;-76
2023/04/30 10:40:46;;;;;;;1.70;1.60;;;;;;;-143.99;100.00;64180.81;6080095;29;20237;-74
2023/04/30 10:44:08;;;;;;;1.63;1.53;;;;;;;-143.99;100.00;64180.81;6064731;29;20241;-74
2023/04/30 10:47:31;;;;;;;2.60;1.40;;;;;;;-143.99;100.00;64180.81;6069412;29;20257;-74
2023/04/30 10:50:53;;;;;;;1.67;1.43;;;;;;;-143.99;100.00;64180.81;6072278;29;20236;-73
2023/04/30 10:54:22;;;;;;;2.50;2.03;;;;;;;-143.99;100.00;64180.81;6066795;29;20240;-74
2023/04/30 10:57:47;;;;;;;3.83;2.23;;;;;;;-143.99;100.00;64180.81;6075696;29;20245;-74
2023/04/30 11:01:09;;;;;;;3.13;2.67;;;;;;;-143.99;100.00;64180.81;6070228;29;20232;-74
2023/04/30 11:04:54;;;;;;;1.77;1.30;;;;;;;-143.99;100.00;64180.81;6061409;29;20270;-74
2023/04/30 11:08:15;;;;;;;2.13;1.27;;;;;;;-143.99;100.00;64180.81;6080308;29;20513;-76
2023/04/30 11:11:37;;;;;;;1.93;1.70;;;;;;;-143.99;100.00;64180.81;6083967;29;20236;-76
2023/04/30 11:15:05;;;;;;;2.37;1.30;;;;;;;-143.99;100.00;64180.81;6069057;29;20228;-74
2023/04/30 11:18:27;;;;;;;2.47;1.60;;;;;;;-143.99;100.00;64180.81;6078547;29;20319;-75
2023/04/30 11:22:16;;;;;;;1.10;1.00;;;;;;;-143.99;100.00;64180.81;6080411;29;20237;-75
2023/04/30 11:25:41;;;;;;;4.87;1.97;;;;;;;-143.99;100.00;64180.81;6082195;29;20248;-74
2023/04/30 11:29:05;;;;;;;1.57;1.47;;;;;;;-143.99;100.00;64180.81;6066223;29;20655;-74
2023/04/30 11:32:31;;;;;;;4.23;1.40;;;;;;;-143.99;100.00;64180.81;6077298;29;20615;-73
2023/04/30 11:35:54;;;;;;;2.37;1.20;;;;;;;-143.99;100.00;64180.81;6072290;29;20237;-74
2023/04/30 11:39:18;;;;;;;2.00;1.90;;;;;;;-143.99;100.00;64180.81;6071686;29;20506;-74
2023/04/30 11:42:40;;;;;;;5.87;1.20;;;;;;;-143.99;100.00;64180.81;6079221;29;20232;-74
2023/04/30 11:46:03;;;;;;;4.10;1.40;;;;;;;-143.99;100.00;64180.81;6065824;29;20248;-74
2023/04/30 11:49:24;;;;;;;1.50;1.40;;;;;;;-143.99;100.00;64180.81;6075768;29;20228;-74
2023/04/30 11:52:49;;;;;;;1.97;1.67;;;;;;;-143.99;100.00;64180.81;6096990;29;20233;-75
2023/04/30 11:56:11;;;;;;;3.03;1.33;;;;;;;-143.99;100.00;64180.81;6069626;29;20261;-74
2023/04/30 11:59:39;;;;;;;1.33;1.10;;;;;;;-143.99;100.00;64180.81;6075563;29;20249;-74
2023/04/30 12:03:02;;;;;;;2.10;1.77;;;;;;;-143.99;100.00;64180.81;6061333;29;20227;-73
2023/04/30 12:06:27;;;;;;;3.93;2.03;;;;;;;-143.99;100.00;64180.81;6061924;29;20232;-75
2023/04/30 12:09:52;;;;;;;5.23;2.03;;;;;;;-143.99;100.00;64180.81;6059863;29;20619;-74
2023/04/30 12:13:22;;;;;;;1.83;1.58;;;;;;;-143.99;100.00;64180.81;6056712;29;20228;-74
2023/04/30 12:16:47;;;;;;;3.67;1.58;;;;;;;-143.99;100.00;64180.81;6047284;29;20685;-74
2023/04/30 12:20:10;;;;;;;3.50;1.80;;;;;;;-143.99;100.00;64180.81;6072692;29;20268;-74
2023/04/30 12:23:31;;;;;;;1.77;1.40;;;;;;;-143.99;100.00;64180.81;6071569;29;20249;-73
2023/04/30 12:26:53;;;;;;;3.63;1.48;;;;;;;-143.99;100.00;64180.81;6070068;29;20237;-70
2023/04/30 12:30:20;;;;;;;4.82;3.33;;;;;;;-143.99;100.00;64180.81;6042129;29;20272;-72
2023/04/30 12:33:40;;;;;;;1.67;1.40;;;;;;;-143.99;100.00;64180.81;6034302;29;20259;-72
2023/04/30 12:37:02;;;;;;;1.80;1.70;;;;;;;-143.99;100.00;64180.81;6064870;29;20243;-72
2023/04/30 12:40:28;;;;;;;2.40;2.20;;;;;;;-143.99;100.00;64180.81;6046771;29;20282;-73
2023/04/30 12:43:50;;;;;;;4.45;1.70;;;;;;;-143.99;100.00;64180.81;6041261;29;20236;-72
2023/04/30 12:47:13;;;;;;;2.30;1.60;;;;;;;-143.99;100.00;64180.81;6041116;29;20342;-70
2023/04/30 12:50:37;;;;;;;2.65;1.85;;;;;;;-143.99;100.00;64180.81;6026251;29;20303;-70
2023/04/30 12:53:57;;;;;;;7.63;1.77;;;;;;;-143.99;100.00;64180.81;6034936;29;20255;-69
2023/04/30 12:57:18;;;;;;;3.78;1.42;;;;;;;-143.99;100.00;64180.81;6058675;29;20319;-71
2023/04/30 13:00:44;;;;;;;2.92;2.63;;;;;;;-143.99;100.00;64180.81;6074084;29;20240;-69
2023/04/30 13:04:07;;;;;;;1.92;1.67;;;;;;;-143.99;100.00;64180.81;6054294;29;20232;-68
2023/04/30 13:07:37;;;;;;;3.40;1.48;;;;;;;-143.99;100.00;64180.81;6067630;29;20315;-71
2023/04/30 13:10:58;;;;;;;2.15;1.52;;;;;;;-143.99;100.00;64180.81;6066756;29;20259;-70
2023/04/30 13:14:18;;;;;;;1.98;1.88;;;;;;;-143.99;100.00;64180.81;6056086;29;20240;-69
2023/04/30 13:17:39;;;;;;;6.40;1.95;;;;;;;-143.99;100.00;64180.81;6065366;29;20256;-73
2023/04/30 13:21:02;;;;;;;1.83;1.42;;;;;;;-143.99;100.00;64180.81;6063320;29;20236;-70
2023/04/30 13:24:22;;;;;;;2.45;1.80;;;;;;;-143.99;100.00;64180.81;6067458;29;20232;-71
2023/04/30 13:27:43;;;;;;;2.80;1.77;;;;;;;-143.99;100.00;64180.81;6074498;29;20257;-71
2023/04/30 13:31:04;;;;;;;1.98;0.98;;;;;;;-143.99;100.00;64180.81;6058851;29;20801;-69
2023/04/30 13:34:25;;;;;;;2.85;2.28;;;;;;;-143.99;100.00;64180.81;6065853;29;20236;-70
2023/04/30 13:37:48;;;;;;;1.77;1.42;;;;;;;-143.99;100.00;64180.81;6081781;29;20759;-69
2023/04/30 13:41:09;;;;;;;2.47;1.92;;;;;;;-143.99;100.00;64180.81;6074420;29;20784;-72
2023/04/30 13:44:31;;;;;;;2.20;1.90;;;;;;;-143.99;100.00;64180.81;6054622;29;20771;-72
2023/04/30 13:47:54;;;;;;;3.63;2.42;;;;;;;-143.99;100.00;64180.81;6076982;29;20584;-72
2023/04/30 13:51:15;;;;;;;5.90;2.05;;;;;;;-143.99;100.00;64180.81;6065323;29;20264;-72
2023/04/30 13:54:38;;;;;;;2.67;1.98;;;;;;;-143.99;100.00;64180.81;6065971;29;20256;-72
2023/04/30 13:57:59;;;;;;;2.67;1.80;;;;;;;-143.99;100.00;64180.81;6072780;29;20232;-72
2023/04/30 14:01:23;;;;;;;2.40;1.98;;;;;;;-143.99;100.00;64180.81;6070569;29;20244;-72
2023/04/30 14:04:45;;;;;;;3.67;2.90;;;;;;;-143.99;100.00;64180.81;6061043;29;21044;-72
2023/04/30 14:08:06;;;;;;;2.47;1.50;;;;;;;-143.99;100.00;64180.81;6078223;29;20233;-72
2023/04/30 14:11:28;;;;;;;2.65;2.10;;;;;;;-143.99;100.00;64180.81;6078357;29;20637;-72
2023/04/30 14:14:49;;;;;;;3.72;2.22;;;;;;;-143.99;100.00;64180.81;6067961;29;20236;-71
2023/04/30 14:18:09;;;;;;;2.85;1.90;;;;;;;-143.99;100.00;64180.81;6067651;29;20245;-72
2023/04/30 14:21:30;;;;;;;4.80;2.20;;;;;;;-143.99;100.00;64180.81;6056718;29;20279;-72
2023/04/30 14:24:52;;;;;;;5.85;3.50;;;;;;;-143.99;100.00;64180.81;6081296;28;20252;-72
2023/04/30 14:28:14;;;;;;;3.92;2.78;;;;;;;-143.99;100.00;64180.81;6078865;29;20230;-73
2023/04/30 14:31:35;;;;;;;1.67;1.27;;;;;;;-143.99;100.00;64180.81;6076755;29;20240;-72
2023/04/30 14:34:56;;;;;;;3.30;2.28;;;;;;;-143.99;100.00;64180.81;6087322;29;20259;-73
2023/04/30 14:38:16;;;;;;;3.47;3.15;;;;;;;-143.99;100.00;64180.81;6071739;29;20240;-72
2023/04/30 14:41:37;;;;;;;1.58;1.48;;;;;;;-143.99;100.00;64180.81;6085962;29;20643;-71
2023/04/30 14:44:59;;;;;;;1.92;1.58;;;;;;;-143.99;100.00;64180.81;6070665;29;20237;-72
2023/04/30 14:48:20;;;;;;;3.30;2.13;;;;;;;-143.99;100.00;64180.81;6084869;29;20570;-72
2023/04/30 14:51:41;;;;;;;2.08;1.88;;;;;;;-143.99;100.00;64180.81;6072761;29;20245;-71
2023/04/30 14:55:03;;;;;;;2.28;1.80;;;;;;;-143.99;100.00;64180.81;6074515;29;20229;-72
2023/04/30 14:58:24;;;;;;;5.22;2.20;;;;;;;-143.99;100.00;64180.81;6088052;28;20705;-73
2023/04/30 15:01:47;;;;;;;2.78;2.35;;;;;;;-143.99;100.00;64180.81;6078030;29;23224;-73
2023/04/30 15:05:08;;;;;;;2.22;2.05;;;;;;;-143.99;100.00;64180.81;6081278;29;20236;-72
2023/04/30 15:08:29;;;;;;;5.25;2.47;;;;;;;-143.99;100.00;64180.81;6078218;29;20228;-72
2023/04/30 15:11:49;;;;;;;1.77;1.65;;;;;;;-143.99;100.00;64180.81;6080376;29;20232;-73
2023/04/30 15:15:11;;;;;;;2.75;1.63;;;;;;;-143.99;100.00;64180.81;6074664;29;20228;-72
2023/04/30 15:18:34;;;;;;;1.80;1.70;;;;;;;-143.99;100.00;64180.81;6075918;29;20236;-80
2023/04/30 15:21:55;;;;;;;3.67;2.10;;;;;;;-143.99;100.00;64180.81;6078864;29;20233;-80